sensor_id;sensor_type;location;lat;lon;timestamp;pressure;altitude;pressure_sealevel;temperature;humidity
49044;BME280;34860;48.066;14.124;2022-12-17T00:02:35;96545.72;;;-1.40;79.26
49044;BME280;34860;48.066;14.124;2022-12-17T00:05:40;96542.59;;;-1.39;79.27
49044;BME280;34860;48.066;14.124;2022-12-17T00:08:45;96544.97;;;-1.37;79.29
49044;BME280;34860;48.066;14.124;2022-12-17T00:11:52;96547.78;;;-1.34;79.26
49044;BME280;34860;48.066;14.124;2022-12-17T00:14:58;96544.97;;;-1.37;79.08
49044;BME280;34860;48.066;14.124;2022-12-17T00:18:06;96548.50;;;-1.37;79.26
49044;BME280;34860;48.066;14.124;2022-12-17T00:21:12;96561.69;;;-1.39;79.36
49044;BME280;34860;48.066;14.124;2022-12-17T00:24:17;96566.72;;;-1.41;79.28
49044;BME280;34860;48.066;14.124;2022-12-17T00:27:33;96560.44;;;-1.45;79.37
49044;BME280;34860;48.066;14.124;2022-12-17T00:30:38;96570.97;;;-1.43;79.38
49044;BME280;34860;48.066;14.124;2022-12-17T00:33:45;96573.69;;;-1.43;79.41
49044;BME280;34860;48.066;14.124;2022-12-17T00:36:50;96574.84;;;-1.44;79.32
49044;BME280;34860;48.066;14.124;2022-12-17T00:39:56;96579.56;;;-1.41;79.23
49044;BME280;34860;48.066;14.124;2022-12-17T00:43:05;96594.69;;;-1.44;79.27
49044;BME280;34860;48.066;14.124;2022-12-17T00:46:12;96592.78;;;-1.43;79.36
49044;BME280;34860;48.066;14.124;2022-12-17T00:49:18;96595.06;;;-1.46;79.24
49044;BME280;34860;48.066;14.124;2022-12-17T00:52:23;96609.13;;;-1.43;79.43
49044;BME280;34860;48.066;14.124;2022-12-17T00:55:29;96606.03;;;-1.42;79.31
49044;BME280;34860;48.066;14.124;2022-12-17T00:58:36;96620.09;;;-1.40;79.31
49044;BME280;34860;48.066;14.124;2022-12-17T01:01:41;96614.28;;;-1.38;79.38
49044;BME280;34860;48.066;14.124;2022-12-17T01:04:47;96614.72;;;-1.36;79.33
49044;BME280;34860;48.066;14.124;2022-12-17T01:07:53;96610.84;;;-1.35;79.29
49044;BME280;34860;48.066;14.124;2022-12-17T01:11:01;96612.41;;;-1.34;79.17
49044;BME280;34860;48.066;14.124;2022-12-17T01:14:08;96621.38;;;-1.34;79.34
49044;BME280;34860;48.066;14.124;2022-12-17T01:17:14;96626.03;;;-1.34;79.32
49044;BME280;34860;48.066;14.124;2022-12-17T01:20:19;96638.88;;;-1.35;79.43
49044;BME280;34860;48.066;14.124;2022-12-17T01:23:24;96634.16;;;-1.38;79.26
49044;BME280;34860;48.066;14.124;2022-12-17T01:26:30;96632.19;;;-1.37;79.42
49044;BME280;34860;48.066;14.124;2022-12-17T01:29:36;96634.94;;;-1.37;79.28
49044;BME280;34860;48.066;14.124;2022-12-17T01:32:59;96639.97;;;-1.39;79.39
49044;BME280;34860;48.066;14.124;2022-12-17T01:36:05;96644.63;;;-1.40;79.41
49044;BME280;34860;48.066;14.124;2022-12-17T01:39:10;96639.59;;;-1.38;79.44
49044;BME280;34860;48.066;14.124;2022-12-17T01:42:16;96641.19;;;-1.37;79.33
49044;BME280;34860;48.066;14.124;2022-12-17T01:45:25;96642.69;;;-1.39;79.35
49044;BME280;34860;48.066;14.124;2022-12-17T01:48:38;96648.91;;;-1.39;79.31
49044;BME280;34860;48.066;14.124;2022-12-17T01:51:45;96645.06;;;-1.38;79.25
49044;BME280;34860;48.066;14.124;2022-12-17T01:54:51;96645.84;;;-1.37;79.21
49044;BME280;34860;48.066;14.124;2022-12-17T01:57:57;96649.00;;;-1.35;79.22
49044;BME280;34860;48.066;14.124;2022-12-17T02:01:04;96653.28;;;-1.34;79.10
49044;BME280;34860;48.066;14.124;2022-12-17T02:04:10;96660.34;;;-1.33;79.09
49044;BME280;34860;48.066;14.124;2022-12-17T02:07:24;96663.41;;;-1.35;79.17
49044;BME280;34860;48.066;14.124;2022-12-17T02:10:37;96673.09;;;-1.37;79.24
49044;BME280;34860;48.066;14.124;2022-12-17T02:13:52;96673.91;;;-1.37;79.34
49044;BME280;34860;48.066;14.124;2022-12-17T02:17:09;96679.78;;;-1.35;79.25
49044;BME280;34860;48.066;14.124;2022-12-17T02:20:23;96665.00;;;-1.34;79.21
49044;BME280;34860;48.066;14.124;2022-12-17T02:23:36;96674.38;;;-1.31;79.25
49044;BME280;34860;48.066;14.124;2022-12-17T02:26:46;96682.56;;;-1.31;79.24
49044;BME280;34860;48.066;14.124;2022-12-17T02:29:55;96688.03;;;-1.31;79.27
49044;BME280;34860;48.066;14.124;2022-12-17T02:33:02;96691.56;;;-1.31;79.23
49044;BME280;34860;48.066;14.124;2022-12-17T02:36:08;96690.75;;;-1.31;79.23
49044;BME280;34860;48.066;14.124;2022-12-17T02:39:14;96695.84;;;-1.30;79.16
49044;BME280;34860;48.066;14.124;2022-12-17T02:42:22;96705.59;;;-1.29;78.80
49044;BME280;34860;48.066;14.124;2022-12-17T02:45:32;96706.84;;;-1.26;79.24
49044;BME280;34860;48.066;14.124;2022-12-17T02:48:38;96717.00;;;-1.23;79.15
49044;BME280;34860;48.066;14.124;2022-12-17T02:51:47;96715.44;;;-1.24;79.23
49044;BME280;34860;48.066;14.124;2022-12-17T02:54:54;96721.69;;;-1.23;79.23
49044;BME280;34860;48.066;14.124;2022-12-17T02:58:00;96727.56;;;-1.21;79.38
49044;BME280;34860;48.066;14.124;2022-12-17T03:01:07;96726.00;;;-1.22;79.24
49044;BME280;34860;48.066;14.124;2022-12-17T03:04:13;96739.69;;;-1.19;79.25
49044;BME280;34860;48.066;14.124;2022-12-17T03:07:19;96735.38;;;-1.20;79.22
49044;BME280;34860;48.066;14.124;2022-12-17T03:10:39;96744.38;;;-1.19;79.35
49044;BME280;34860;48.066;14.124;2022-12-17T03:13:45;96749.81;;;-1.19;79.14
49044;BME280;34860;48.066;14.124;2022-12-17T03:16:50;96758.78;;;-1.19;79.08
49044;BME280;34860;48.066;14.124;2022-12-17T03:19:56;96759.91;;;-1.20;79.19
49044;BME280;34860;48.066;14.124;2022-12-17T03:23:02;96754.03;;;-1.22;79.20
49044;BME280;34860;48.066;14.124;2022-12-17T03:26:08;96757.19;;;-1.20;79.19
49044;BME280;34860;48.066;14.124;2022-12-17T03:29:15;96761.16;;;-1.17;79.19
49044;BME280;34860;48.066;14.124;2022-12-17T03:32:20;96767.03;;;-1.15;79.20
49044;BME280;34860;48.066;14.124;2022-12-17T03:35:26;96769.34;;;-1.17;79.21
49044;BME280;34860;48.066;14.124;2022-12-17T03:38:31;96778.66;;;-1.18;79.12
49044;BME280;34860;48.066;14.124;2022-12-17T03:41:37;96779.81;;;-1.19;79.14
49044;BME280;34860;48.066;14.124;2022-12-17T03:44:43;96782.44;;;-1.23;79.28
49044;BME280;34860;48.066;14.124;2022-12-17T03:47:49;96796.47;;;-1.24;79.43
49044;BME280;34860;48.066;14.124;2022-12-17T03:50:54;96796.47;;;-1.24;79.33
49044;BME280;34860;48.066;14.124;2022-12-17T03:54:00;96801.53;;;-1.23;79.21
49044;BME280;34860;48.066;14.124;2022-12-17T03:57:05;96805.13;;;-1.19;79.38
49044;BME280;34860;48.066;14.124;2022-12-17T04:00:13;96804.44;;;-1.16;79.32
49044;BME280;34860;48.066;14.124;2022-12-17T04:03:18;96813.03;;;-1.14;79.21
49044;BME280;34860;48.066;14.124;2022-12-17T04:06:24;96812.69;;;-1.12;79.15
49044;BME280;34860;48.066;14.124;2022-12-17T04:09:29;96812.31;;;-1.11;79.18
49044;BME280;34860;48.066;14.124;2022-12-17T04:12:35;96830.00;;;-1.04;79.01
49044;BME280;34860;48.066;14.124;2022-12-17T04:15:42;96834.31;;;-1.03;79.13
49044;BME280;34860;48.066;14.124;2022-12-17T04:18:47;96841.25;;;-1.06;79.10
49044;BME280;34860;48.066;14.124;2022-12-17T04:21:53;96840.75;;;-1.12;79.05
49044;BME280;34860;48.066;14.124;2022-12-17T04:24:59;96846.47;;;-1.17;79.14
49044;BME280;34860;48.066;14.124;2022-12-17T04:28:04;96843.31;;;-1.19;79.20
49044;BME280;34860;48.066;14.124;2022-12-17T04:31:10;96846.41;;;-1.20;79.16
49044;BME280;34860;48.066;14.124;2022-12-17T04:34:15;96852.19;;;-1.22;79.22
49044;BME280;34860;48.066;14.124;2022-12-17T04:37:20;96852.56;;;-1.23;79.36
49044;BME280;34860;48.066;14.124;2022-12-17T04:40:26;96859.53;;;-1.26;79.23
49044;BME280;34860;48.066;14.124;2022-12-17T04:43:31;96853.97;;;-1.30;79.27
49044;BME280;34860;48.066;14.124;2022-12-17T04:46:50;96859.00;;;-1.32;79.24
49044;BME280;34860;48.066;14.124;2022-12-17T04:49:55;96862.06;;;-1.33;79.25
49044;BME280;34860;48.066;14.124;2022-12-17T04:53:02;96872.19;;;-1.34;79.30
49044;BME280;34860;48.066;14.124;2022-12-17T04:56:08;96875.16;;;-1.39;79.28
49044;BME280;34860;48.066;14.124;2022-12-17T04:59:13;96875.16;;;-1.39;79.29
49044;BME280;34860;48.066;14.124;2022-12-17T05:02:20;96873.59;;;-1.40;79.25
49044;BME280;34860;48.066;14.124;2022-12-17T05:05:28;96879.41;;;-1.41;79.25
49044;BME280;34860;48.066;14.124;2022-12-17T05:08:42;96893.03;;;-1.41;79.32
49044;BME280;34860;48.066;14.124;2022-12-17T05:11:47;96888.81;;;-1.39;79.19
49044;BME280;34860;48.066;14.124;2022-12-17T05:14:56;96883.00;;;-1.37;79.24
49044;BME280;34860;48.066;14.124;2022-12-17T05:18:06;96890.47;;;-1.34;79.21
49044;BME280;34860;48.066;14.124;2022-12-17T05:21:12;96901.47;;;-1.31;79.11
49044;BME280;34860;48.066;14.124;2022-12-17T05:24:18;96905.00;;;-1.30;79.12
49044;BME280;34860;48.066;14.124;2022-12-17T05:27:25;96910.09;;;-1.29;79.24
49044;BME280;34860;48.066;14.124;2022-12-17T05:30:30;96913.59;;;-1.28;79.19
49044;BME280;34860;48.066;14.124;2022-12-17T05:33:34;96923.28;;;-1.31;79.12
49044;BME280;34860;48.066;14.124;2022-12-17T05:36:39;96920.66;;;-1.27;79.12
49044;BME280;34860;48.066;14.124;2022-12-17T05:39:44;96928.13;;;-1.24;79.12
49044;BME280;34860;48.066;14.124;2022-12-17T05:42:54;96929.78;;;-1.19;79.06
49044;BME280;34860;48.066;14.124;2022-12-17T05:46:01;96947.38;;;-1.17;78.98
49044;BME280;34860;48.066;14.124;2022-12-17T05:49:08;96946.59;;;-1.17;79.10
49044;BME280;34860;48.066;14.124;2022-12-17T05:52:13;96952.81;;;-1.17;79.05
49044;BME280;34860;48.066;14.124;2022-12-17T05:55:18;96956.78;;;-1.14;79.06
49044;BME280;34860;48.066;14.124;2022-12-17T05:58:24;96969.38;;;-1.10;79.13
49044;BME280;34860;48.066;14.124;2022-12-17T06:01:30;96966.22;;;-1.12;79.10
49044;BME280;34860;48.066;14.124;2022-12-17T06:04:37;96973.78;;;-1.05;79.11
49044;BME280;34860;48.066;14.124;2022-12-17T06:07:45;96972.59;;;-1.04;79.15
49044;BME280;34860;48.066;14.124;2022-12-17T06:10:51;96976.50;;;-1.05;79.10
49044;BME280;34860;48.066;14.124;2022-12-17T06:13:57;96981.59;;;-1.03;79.19
49044;BME280;34860;48.066;14.124;2022-12-17T06:17:02;96992.16;;;-1.02;79.15
49044;BME280;34860;48.066;14.124;2022-12-17T06:20:10;96993.22;;;-1.06;79.16
49044;BME280;34860;48.066;14.124;2022-12-17T06:23:16;96995.88;;;-1.10;79.25
49044;BME280;34860;48.066;14.124;2022-12-17T06:26:22;96997.34;;;-1.13;79.48
49044;BME280;34860;48.066;14.124;2022-12-17T06:29:27;96990.13;;;-1.21;79.23
49044;BME280;34860;48.066;14.124;2022-12-17T06:32:32;96999.38;;;-1.25;79.38
49044;BME280;34860;48.066;14.124;2022-12-17T06:35:39;97012.56;;;-1.27;79.42
49044;BME280;34860;48.066;14.124;2022-12-17T06:38:45;97020.63;;;-1.31;79.30
49044;BME280;34860;48.066;14.124;2022-12-17T06:41:50;97017.41;;;-1.37;79.46
49044;BME280;34860;48.066;14.124;2022-12-17T06:44:55;97025.91;;;-1.38;79.35
49044;BME280;34860;48.066;14.124;2022-12-17T06:48:01;97043.06;;;-1.38;79.33
49044;BME280;34860;48.066;14.124;2022-12-17T06:51:08;97037.25;;;-1.36;79.28
49044;BME280;34860;48.066;14.124;2022-12-17T06:54:13;97044.66;;;-1.37;79.26
49044;BME280;34860;48.066;14.124;2022-12-17T06:57:19;97059.06;;;-1.36;79.32
49044;BME280;34860;48.066;14.124;2022-12-17T07:00:26;97060.31;;;-1.34;79.28
49044;BME280;34860;48.066;14.124;2022-12-17T07:03:32;97067.34;;;-1.33;79.17
49044;BME280;34860;48.066;14.124;2022-12-17T07:06:41;97059.97;;;-1.32;79.08
49044;BME280;34860;48.066;14.124;2022-12-17T07:09:46;97067.00;;;-1.31;79.04
49044;BME280;34860;48.066;14.124;2022-12-17T07:12:54;97073.25;;;-1.31;79.13
49044;BME280;34860;48.066;14.124;2022-12-17T07:16:00;97077.09;;;-1.32;79.07
49044;BME280;34860;48.066;14.124;2022-12-17T07:19:05;97080.53;;;-1.35;79.03
49044;BME280;34860;48.066;14.124;2022-12-17T07:22:14;97083.59;;;-1.36;79.15
49044;BME280;34860;48.066;14.124;2022-12-17T07:25:20;97094.41;;;-1.40;79.14
49044;BME280;34860;48.066;14.124;2022-12-17T07:28:27;97097.50;;;-1.41;79.16
49044;BME280;34860;48.066;14.124;2022-12-17T07:31:32;97099.88;;;-1.40;79.20
49044;BME280;34860;48.066;14.124;2022-12-17T07:34:38;97103.72;;;-1.41;78.97
49044;BME280;34860;48.066;14.124;2022-12-17T07:37:44;97103.38;;;-1.39;79.14
49044;BME280;34860;48.066;14.124;2022-12-17T07:40:50;97100.31;;;-1.38;78.97
49044;BME280;34860;48.066;14.124;2022-12-17T07:43:55;97108.50;;;-1.38;79.16
49044;BME280;34860;48.066;14.124;2022-12-17T07:47:01;97110.78;;;-1.40;79.22
49044;BME280;34860;48.066;14.124;2022-12-17T07:50:06;97104.88;;;-1.42;79.00
49044;BME280;34860;48.066;14.124;2022-12-17T07:53:13;97115.22;;;-1.48;79.03
49044;BME280;34860;48.066;14.124;2022-12-17T07:56:19;97105.72;;;-1.54;79.22
49044;BME280;34860;48.066;14.124;2022-12-17T07:59:25;97116.97;;;-1.55;79.11
49044;BME280;34860;48.066;14.124;2022-12-17T08:02:30;97123.91;;;-1.58;79.10
49044;BME280;34860;48.066;14.124;2022-12-17T08:05:36;97130.50;;;-1.59;79.13
49044;BME280;34860;48.066;14.124;2022-12-17T08:08:43;97123.91;;;-1.58;79.05
49044;BME280;34860;48.066;14.124;2022-12-17T08:11:49;97139.91;;;-1.56;79.15
49044;BME280;34860;48.066;14.124;2022-12-17T08:14:54;97145.81;;;-1.54;79.02
49044;BME280;34860;48.066;14.124;2022-12-17T08:18:02;97142.75;;;-1.53;79.06
49044;BME280;34860;48.066;14.124;2022-12-17T08:21:11;97139.53;;;-1.55;79.03
49044;BME280;34860;48.066;14.124;2022-12-17T08:24:18;97153.91;;;-1.58;79.02
49044;BME280;34860;48.066;14.124;2022-12-17T08:27:23;97152.88;;;-1.66;79.01
49044;BME280;34860;48.066;14.124;2022-12-17T08:30:28;97156.31;;;-1.69;79.09
49044;BME280;34860;48.066;14.124;2022-12-17T08:33:39;97170.72;;;-1.68;79.14
49044;BME280;34860;48.066;14.124;2022-12-17T08:36:46;97168.41;;;-1.66;79.02
49044;BME280;34860;48.066;14.124;2022-12-17T08:39:56;97167.75;;;-1.63;78.96
49044;BME280;34860;48.066;14.124;2022-12-17T08:43:03;97168.22;;;-1.61;79.03
49044;BME280;34860;48.066;14.124;2022-12-17T08:46:08;97177.69;;;-1.55;78.95
49044;BME280;34860;48.066;14.124;2022-12-17T08:49:14;97187.69;;;-1.47;79.08
49044;BME280;34860;48.066;14.124;2022-12-17T08:52:19;97184.81;;;-1.38;78.85
49044;BME280;34860;48.066;14.124;2022-12-17T08:55:26;97197.50;;;-1.30;78.80
49044;BME280;34860;48.066;14.124;2022-12-17T08:58:32;97195.25;;;-1.27;78.85
49044;BME280;34860;48.066;14.124;2022-12-17T09:01:39;97201.84;;;-1.29;78.88
49044;BME280;34860;48.066;14.124;2022-12-17T09:04:46;97203.78;;;-1.29;78.83
49044;BME280;34860;48.066;14.124;2022-12-17T09:07:58;97207.97;;;-1.32;78.79
49044;BME280;34860;48.066;14.124;2022-12-17T09:11:05;97208.00;;;-1.44;78.87
49044;BME280;34860;48.066;14.124;2022-12-17T09:14:14;97202.47;;;-1.48;79.09
49044;BME280;34860;48.066;14.124;2022-12-17T09:17:19;97211.41;;;-1.47;79.12
49044;BME280;34860;48.066;14.124;2022-12-17T09:20:25;97217.00;;;-1.43;78.89
49044;BME280;34860;48.066;14.124;2022-12-17T09:23:30;97213.38;;;-1.48;78.80
49044;BME280;34860;48.066;14.124;2022-12-17T09:26:37;97223.81;;;-1.50;79.12
49044;BME280;34860;48.066;14.124;2022-12-17T09:29:42;97219.59;;;-1.47;79.09
49044;BME280;34860;48.066;14.124;2022-12-17T09:32:48;97225.38;;;-1.36;79.02
49044;BME280;34860;48.066;14.124;2022-12-17T09:35:55;97223.00;;;-1.38;79.05
49044;BME280;34860;48.066;14.124;2022-12-17T09:39:01;97220.06;;;-1.45;78.98
49044;BME280;34860;48.066;14.124;2022-12-17T09:42:17;97232.22;;;-1.55;79.01
49044;BME280;34860;48.066;14.124;2022-12-17T09:45:28;97225.88;;;-1.59;79.08
49044;BME280;34860;48.066;14.124;2022-12-17T09:48:41;97236.78;;;-1.59;79.11
49044;BME280;34860;48.066;14.124;2022-12-17T09:51:51;97228.03;;;-1.65;79.09
49044;BME280;34860;48.066;14.124;2022-12-17T09:54:57;97234.63;;;-1.66;79.11
49044;BME280;34860;48.066;14.124;2022-12-17T09:58:05;97237.91;;;-1.60;79.15
49044;BME280;34860;48.066;14.124;2022-12-17T10:01:19;97238.59;;;-1.51;79.13
49044;BME280;34860;48.066;14.124;2022-12-17T10:04:32;97234.69;;;-1.37;79.08
49044;BME280;34860;48.066;14.124;2022-12-17T10:07:37;97251.47;;;-1.23;79.08
49044;BME280;34860;48.066;14.124;2022-12-17T10:10:45;97247.66;;;-1.06;78.87
49044;BME280;34860;48.066;14.124;2022-12-17T10:13:52;97251.50;;;-0.95;78.64
49044;BME280;34860;48.066;14.124;2022-12-17T10:16:57;97251.59;;;-0.91;78.79
49044;BME280;34860;48.066;14.124;2022-12-17T10:20:14;97245.59;;;-0.97;78.64
49044;BME280;34860;48.066;14.124;2022-12-17T10:23:23;97257.44;;;-1.05;78.72
49044;BME280;34860;48.066;14.124;2022-12-17T10:26:32;97253.16;;;-1.18;78.86
49044;BME280;34860;48.066;14.124;2022-12-17T10:29:40;97258.75;;;-1.27;79.08
49044;BME280;34860;48.066;14.124;2022-12-17T10:32:54;97263.78;;;-1.29;78.98
49044;BME280;34860;48.066;14.124;2022-12-17T10:35:59;97279.31;;;-1.30;79.23
49044;BME280;34860;48.066;14.124;2022-12-17T10:39:14;97275.13;;;-1.39;79.01
49044;BME280;34860;48.066;14.124;2022-12-17T10:42:23;97272.66;;;-1.44;79.03
49044;BME280;34860;48.066;14.124;2022-12-17T10:45:32;97276.50;;;-1.46;79.03
49044;BME280;34860;48.066;14.124;2022-12-17T10:48:38;97276.75;;;-1.51;79.15
49044;BME280;34860;48.066;14.124;2022-12-17T10:51:43;97291.63;;;-1.48;79.11
49044;BME280;34860;48.066;14.124;2022-12-17T10:54:58;97292.41;;;-1.48;79.13
49044;BME280;34860;48.066;14.124;2022-12-17T10:58:11;97294.78;;;-1.46;78.99
49044;BME280;34860;48.066;14.124;2022-12-17T11:01:21;97299.47;;;-1.47;79.06
49044;BME280;34860;48.066;14.124;2022-12-17T11:04:29;97302.06;;;-1.50;78.98
49044;BME280;34860;48.066;14.124;2022-12-17T11:07:37;97307.66;;;-1.47;79.20
49044;BME280;34860;48.066;14.124;2022-12-17T11:10:45;97306.97;;;-1.43;79.03
49044;BME280;34860;48.066;14.124;2022-12-17T11:13:54;97311.25;;;-1.42;78.97
49044;BME280;34860;48.066;14.124;2022-12-17T11:17:03;97311.25;;;-1.42;79.02
49044;BME280;34860;48.066;14.124;2022-12-17T11:20:20;97311.25;;;-1.42;78.95
49044;BME280;34860;48.066;14.124;2022-12-17T11:23:28;97312.75;;;-1.45;78.97
49044;BME280;34860;48.066;14.124;2022-12-17T11:26:36;97310.38;;;-1.47;79.00
49044;BME280;34860;48.066;14.124;2022-12-17T11:29:43;97327.84;;;-1.48;79.05
49044;BME280;34860;48.066;14.124;2022-12-17T11:33:02;97337.63;;;-1.47;78.93
49044;BME280;34860;48.066;14.124;2022-12-17T11:36:15;97333.97;;;-1.51;79.06
49044;BME280;34860;48.066;14.124;2022-12-17T11:39:29;97329.22;;;-1.54;79.02
49044;BME280;34860;48.066;14.124;2022-12-17T11:42:41;97324.09;;;-1.55;78.95
49044;BME280;34860;48.066;14.124;2022-12-17T11:45:54;97324.22;;;-1.52;79.15
49044;BME280;34860;48.066;14.124;2022-12-17T11:49:10;97321.97;;;-1.50;79.07
49044;BME280;34860;48.066;14.124;2022-12-17T11:52:25;97317.38;;;-1.46;79.00
49044;BME280;34860;48.066;14.124;2022-12-17T11:55:38;97326.59;;;-1.38;78.87
49044;BME280;34860;48.066;14.124;2022-12-17T11:58:49;97324.22;;;-1.27;78.87
49044;BME280;34860;48.066;14.124;2022-12-17T12:02:03;97323.50;;;-1.12;78.90
49044;BME280;34860;48.066;14.124;2022-12-17T12:05:23;97327.53;;;-0.93;78.68
49044;BME280;34860;48.066;14.124;2022-12-17T12:08:33;97334.03;;;-0.98;78.62
49044;BME280;34860;48.066;14.124;2022-12-17T12:11:43;97326.88;;;-1.02;78.68
49044;BME280;34860;48.066;14.124;2022-12-17T12:14:56;97334.97;;;-1.06;78.78
49044;BME280;34860;48.066;14.124;2022-12-17T12:18:09;97344.75;;;-1.05;78.83
49044;BME280;34860;48.066;14.124;2022-12-17T12:21:34;97354.16;;;-1.02;79.10
49044;BME280;34860;48.066;14.124;2022-12-17T12:24:57;97346.19;;;-0.95;78.97
49044;BME280;34860;48.066;14.124;2022-12-17T12:28:09;97359.16;;;-0.92;78.96
49044;BME280;34860;48.066;14.124;2022-12-17T12:31:24;97351.50;;;-0.86;79.07
49044;BME280;34860;48.066;14.124;2022-12-17T12:34:37;97351.97;;;-0.84;78.95
49044;BME280;34860;48.066;14.124;2022-12-17T12:37:47;97365.47;;;-0.76;78.92
49044;BME280;34860;48.066;14.124;2022-12-17T12:40:59;97373.31;;;-0.74;78.98
49044;BME280;34860;48.066;14.124;2022-12-17T12:44:15;97367.28;;;-0.67;79.06
49044;BME280;34860;48.066;14.124;2022-12-17T12:47:29;97362.81;;;-0.60;78.93
49044;BME280;34860;48.066;14.124;2022-12-17T12:50:44;97368.72;;;-0.58;78.87
49044;BME280;34860;48.066;14.124;2022-12-17T12:53:59;97370.06;;;-0.51;79.11
49044;BME280;34860;48.066;14.124;2022-12-17T12:57:24;97374.50;;;-0.47;79.04
49044;BME280;34860;48.066;14.124;2022-12-17T13:00:34;97379.59;;;-0.45;78.93
49044;BME280;34860;48.066;14.124;2022-12-17T13:03:49;97375.28;;;-0.46;78.81
49044;BME280;34860;48.066;14.124;2022-12-17T13:06:56;97389.31;;;-0.48;78.98
49044;BME280;34860;48.066;14.124;2022-12-17T13:09:49;97390.34;;;-0.52;79.08
49044;BME280;34860;48.066;14.124;2022-12-17T13:12:43;97392.38;;;-0.49;79.18
49044;BME280;34860;48.066;14.124;2022-12-17T13:15:36;97391.22;;;-0.48;79.09
49044;BME280;34860;48.066;14.124;2022-12-17T13:18:30;97393.50;;;-0.50;79.23
49044;BME280;34860;48.066;14.124;2022-12-17T13:21:25;97395.44;;;-0.51;79.22
49044;BME280;34860;48.066;14.124;2022-12-17T13:24:23;97400.09;;;-0.51;79.33
49044;BME280;34860;48.066;14.124;2022-12-17T13:30:19;97407.63;;;-0.61;79.29
49044;BME280;34860;48.066;14.124;2022-12-17T13:33:19;97411.41;;;-0.65;79.32
49044;BME280;34860;48.066;14.124;2022-12-17T13:36:16;97421.56;;;-0.78;79.26
49044;BME280;34860;48.066;14.124;2022-12-17T13:39:21;97423.03;;;-0.93;79.23
49044;BME280;34860;48.066;14.124;2022-12-17T13:42:17;97425.91;;;-1.02;79.44
49044;BME280;34860;48.066;14.124;2022-12-17T13:45:15;97426.91;;;-1.06;79.43
49044;BME280;34860;48.066;14.124;2022-12-17T13:48:04;97438.50;;;-1.10;79.49
49044;BME280;34860;48.066;14.124;2022-12-17T13:50:54;97444.66;;;-1.13;79.25
49044;BME280;34860;48.066;14.124;2022-12-17T13:53:50;97441.47;;;-1.15;79.48
49044;BME280;34860;48.066;14.124;2022-12-17T13:56:39;97444.19;;;-1.15;79.39
49044;BME280;34860;48.066;14.124;2022-12-17T13:59:28;97451.91;;;-1.17;79.32
49044;BME280;34860;48.066;14.124;2022-12-17T14:02:26;97451.13;;;-1.17;79.43
49044;BME280;34860;48.066;14.124;2022-12-17T14:05:24;97466.81;;;-1.14;79.13
49044;BME280;34860;48.066;14.124;2022-12-17T14:08:15;97464.88;;;-1.14;79.26
49044;BME280;34860;48.066;14.124;2022-12-17T14:11:05;97470.66;;;-1.15;79.29
49044;BME280;34860;48.066;14.124;2022-12-17T14:14:18;97471.69;;;-1.20;79.29
49044;BME280;34860;48.066;14.124;2022-12-17T14:17:15;97467.94;;;-1.27;79.23
49044;BME280;34860;48.066;14.124;2022-12-17T14:20:09;97470.53;;;-1.31;79.28
49044;BME280;34860;48.066;14.124;2022-12-17T14:22:59;97478.16;;;-1.37;79.30
49044;BME280;34860;48.066;14.124;2022-12-17T14:25:48;97474.59;;;-1.37;79.33
49044;BME280;34860;48.066;14.124;2022-12-17T14:28:44;97480.19;;;-1.34;79.23
49044;BME280;34860;48.066;14.124;2022-12-17T14:31:35;97479.63;;;-1.39;79.12
49044;BME280;34860;48.066;14.124;2022-12-17T14:34:23;97467.88;;;-1.52;79.18
49044;BME280;34860;48.066;14.124;2022-12-17T14:37:17;97479.69;;;-1.60;79.33
49044;BME280;34860;48.066;14.124;2022-12-17T14:40:09;97489.31;;;-1.63;79.18
49044;BME280;34860;48.066;14.124;2022-12-17T14:43:00;97495.44;;;-1.66;79.24
49044;BME280;34860;48.066;14.124;2022-12-17T14:45:50;97492.59;;;-1.70;79.31
49044;BME280;34860;48.066;14.124;2022-12-17T14:48:59;97494.75;;;-1.75;79.13
49044;BME280;34860;48.066;14.124;2022-12-17T14:51:48;97492.69;;;-1.78;79.02
49044;BME280;34860;48.066;14.124;2022-12-17T14:54:43;97493.38;;;-1.81;79.12
49044;BME280;34860;48.066;14.124;2022-12-17T14:57:32;97500.94;;;-1.87;78.90
49044;BME280;34860;48.066;14.124;2022-12-17T15:00:20;97503.41;;;-1.94;78.89
49044;BME280;34860;48.066;14.124;2022-12-17T15:03:10;97507.47;;;-2.01;79.08
49044;BME280;34860;48.066;14.124;2022-12-17T15:06:02;97513.47;;;-2.07;79.07
49044;BME280;34860;48.066;14.124;2022-12-17T15:08:51;97518.91;;;-2.07;79.17
49044;BME280;34860;48.066;14.124;2022-12-17T15:11:42;97531.38;;;-2.06;79.21
49044;BME280;34860;48.066;14.124;2022-12-17T15:14:30;97530.13;;;-2.09;79.15
49044;BME280;34860;48.066;14.124;2022-12-17T15:17:19;97532.66;;;-2.04;79.05
49044;BME280;34860;48.066;14.124;2022-12-17T15:20:14;97534.50;;;-1.95;78.96
49044;BME280;34860;48.066;14.124;2022-12-17T15:23:04;97547.00;;;-1.94;78.71
49044;BME280;34860;48.066;14.124;2022-12-17T15:25:53;97545.59;;;-2.01;78.75
49044;BME280;34860;48.066;14.124;2022-12-17T15:28:43;97543.34;;;-1.98;79.04
49044;BME280;34860;48.066;14.124;2022-12-17T15:31:31;97549.06;;;-1.91;78.76
49044;BME280;34860;48.066;14.124;2022-12-17T15:34:21;97542.94;;;-1.88;78.79
49044;BME280;34860;48.066;14.124;2022-12-17T15:37:09;97553.84;;;-1.88;78.60
49044;BME280;34860;48.066;14.124;2022-12-17T15:39:57;97559.13;;;-1.92;78.57
49044;BME280;34860;48.066;14.124;2022-12-17T15:42:45;97557.94;;;-2.03;78.56
49044;BME280;34860;48.066;14.124;2022-12-17T15:45:59;97559.34;;;-2.18;78.69
49044;BME280;34860;48.066;14.124;2022-12-17T15:48:47;97559.06;;;-2.25;78.88
49044;BME280;34860;48.066;14.124;2022-12-17T15:51:36;97563.59;;;-2.29;79.12
49044;BME280;34860;48.066;14.124;2022-12-17T15:54:24;97571.63;;;-2.33;78.93
49044;BME280;34860;48.066;14.124;2022-12-17T15:57:11;97562.50;;;-2.37;79.03
49044;BME280;34860;48.066;14.124;2022-12-17T16:00:05;97575.03;;;-2.45;78.94
49044;BME280;34860;48.066;14.124;2022-12-17T16:02:55;97579.06;;;-2.51;79.05
49044;BME280;34860;48.066;14.124;2022-12-17T16:05:43;97578.47;;;-2.57;79.02
49044;BME280;34860;48.066;14.124;2022-12-17T16:08:31;97583.94;;;-2.65;79.10
49044;BME280;34860;48.066;14.124;2022-12-17T16:11:19;97583.19;;;-2.75;79.10